Time;durP1;ratioP1;P1;durP2;ratioP2;P2;SDS_P1;SDS_P2;PMS_P1;PMS_P2;Temp;Humidity;BMP_temperature;BMP_pressure;BME280_temperature;BME280_humidity;BME280_pressure;Samples;Min_cycle;Max_cycle;Signal;HPM_P1;HPM_P2
2022/08/13 00:00:10;;;;;;;0.00;0.00;;;21.40;68.30;;;;;;5071393;28;20048;-66
2022/08/13 00:02:38;;;;;;;0.00;0.00;;;21.30;68.70;;;;;;5064540;28;20122;-65
2022/08/13 00:05:05;;;;;;;0.00;0.00;;;21.30;68.70;;;;;;5059658;28;20041;-66
2022/08/13 00:07:31;;;;;;;0.00;0.00;;;21.30;68.90;;;;;;5065992;28;20037;-66
2022/08/13 00:09:58;;;;;;;0.00;0.00;;;21.30;69.30;;;;;;5051406;28;20423;-66
2022/08/13 00:15:14;;;;;;;0.00;0.00;;;21.10;68.90;;;;;;5071284;28;20049;-66
2022/08/13 00:17:42;;;;;;;0.00;0.00;;;21.10;68.80;;;;;;5069895;28;20041;-66
2022/08/13 00:20:10;;;;;;;0.00;0.00;;;21.10;68.80;;;;;;5071100;28;20040;-66
2022/08/13 00:22:36;;;;;;;0.00;0.00;;;21.00;68.90;;;;;;5062192;28;20045;-66
2022/08/13 00:25:06;;;;;;;0.00;0.00;;;21.00;68.90;;;;;;5050925;28;20044;-66
2022/08/13 00:27:31;;;;;;;0.00;0.00;;;21.00;68.80;;;;;;5052601;28;20079;-66
2022/08/13 00:29:57;;;;;;;0.00;0.00;;;20.90;68.80;;;;;;5070958;28;20072;-66
2022/08/13 00:32:32;;;;;;;0.00;0.00;;;20.90;68.90;;;;;;5067081;28;20684;-66
2022/08/13 00:35:00;;;;;;;0.00;0.00;;;20.90;69.00;;;;;;5050682;28;20528;-66
2022/08/13 00:37:27;;;;;;;0.00;0.00;;;20.90;69.20;;;;;;5051307;28;20424;-66
2022/08/13 00:39:56;;;;;;;0.00;0.00;;;20.90;69.50;;;;;;5050548;28;20045;-66
2022/08/13 00:42:25;;;;;;;0.00;0.00;;;20.80;69.60;;;;;;5050574;28;20064;-66
2022/08/13 00:44:51;;;;;;;0.00;0.00;;;20.90;69.70;;;;;;5070243;28;20096;-66
2022/08/13 00:50:03;;;;;;;0.00;0.00;;;20.80;70.10;;;;;;5049427;28;20061;-66
2022/08/13 00:52:31;;;;;;;0.00;0.00;;;20.80;70.00;;;;;;5050631;28;20120;-66
2022/08/13 00:54:59;;;;;;;0.00;0.00;;;20.90;70.20;;;;;;5050499;28;20052;-66
2022/08/13 00:57:26;;;;;;;0.00;0.00;;;20.80;70.40;;;;;;5050037;28;20439;-66
2022/08/13 00:59:53;;;;;;;0.00;0.00;;;20.80;70.00;;;;;;5068263;28;20094;-66
2022/08/13 01:02:20;;;;;;;0.00;0.00;;;20.80;69.80;;;;;;5070217;28;20128;-66
2022/08/13 01:04:46;;;;;;;0.00;0.00;;;20.80;69.90;;;;;;5053850;28;20510;-66
2022/08/13 01:07:15;;;;;;;0.00;0.00;;;20.80;70.10;;;;;;5049665;28;20041;-66
2022/08/13 01:09:40;;;;;;;0.00;0.00;;;20.80;70.10;;;;;;5065510;28;20128;-66
2022/08/13 01:12:09;;;;;;;0.00;0.00;;;20.80;70.10;;;;;;5070096;28;20127;-66
2022/08/13 01:14:36;;;;;;;0.00;0.00;;;20.70;70.30;;;;;;5068206;28;20106;-66
2022/08/13 01:17:04;;;;;;;0.00;0.00;;;20.70;70.50;;;;;;5068625;28;20076;-66
2022/08/13 01:19:31;;;;;;;0.00;0.00;;;20.70;70.50;;;;;;5067109;28;20062;-66
2022/08/13 01:21:59;;;;;;;0.00;0.00;;;20.60;70.50;;;;;;5068629;28;20128;-66
2022/08/13 01:24:25;;;;;;;0.00;0.00;;;20.60;70.60;;;;;;5067348;28;20084;-66
2022/08/13 01:26:52;;;;;;;0.00;0.00;;;20.60;70.70;;;;;;5068507;28;20040;-66
2022/08/13 01:29:18;;;;;;;0.00;0.00;;;20.60;70.80;;;;;;5067051;28;20044;-66
2022/08/13 01:31:45;;;;;;;0.00;0.00;;;20.60;70.60;;;;;;5069749;28;20041;-66
2022/08/13 01:34:12;;;;;;;0.00;0.00;;;20.60;70.90;;;;;;5061114;28;20048;-66
2022/08/13 01:36:40;;;;;;;0.00;0.00;;;20.60;70.80;;;;;;5049746;28;20098;-66
2022/08/13 01:39:05;;;;;;;0.00;0.00;;;20.50;71.00;;;;;;5056101;28;20068;-66
2022/08/13 01:41:34;;;;;;;0.00;0.00;;;20.50;70.90;;;;;;5069495;28;20079;-66
2022/08/13 01:44:05;;;;;;;0.00;0.00;;;20.50;71.00;;;;;;5068443;28;20032;-66
2022/08/13 01:52:06;;;;;;;0.00;0.00;;;20.40;71.10;;;;;;5049445;28;20084;-66
2022/08/13 01:54:34;;;;;;;0.00;0.00;;;20.40;71.00;;;;;;5054807;28;20373;-66
2022/08/13 01:57:02;;;;;;;0.10;0.10;;;20.40;70.90;;;;;;5047986;28;20052;-66
2022/08/13 01:59:29;;;;;;;0.00;0.00;;;20.30;71.00;;;;;;5049707;28;20049;-65
2022/08/13 02:01:57;;;;;;;0.00;0.00;;;20.30;71.20;;;;;;5049126;28;20494;-66
2022/08/13 02:04:22;;;;;;;0.00;0.00;;;20.30;71.00;;;;;;5049143;28;20425;-66
2022/08/13 02:06:48;;;;;;;0.00;0.00;;;20.30;70.90;;;;;;5049144;28;20041;-66
2022/08/13 02:09:14;;;;;;;0.00;0.00;;;20.30;71.00;;;;;;5051871;28;20871;-66
2022/08/13 02:11:40;;;;;;;0.00;0.00;;;20.20;71.20;;;;;;5069284;28;20120;-66
2022/08/13 02:14:06;;;;;;;0.00;0.00;;;20.20;71.20;;;;;;5066110;28;20484;-66
2022/08/13 02:16:34;;;;;;;0.00;0.00;;;20.20;71.40;;;;;;5069346;28;20043;-66
2022/08/13 02:19:05;;;;;;;0.00;0.00;;;20.20;71.00;;;;;;5064874;28;20068;-66
2022/08/13 02:21:36;;;;;;;0.00;0.00;;;20.10;71.00;;;;;;5049283;28;20048;-66
2022/08/13 02:24:03;;;;;;;;;;;20.20;71.00;;;;;;5049958;28;20041;-66
2022/08/13 02:26:34;;;;;;;0.00;0.00;;;20.10;70.90;;;;;;5049326;28;20007;-66
2022/08/13 02:29:03;;;;;;;0.00;0.00;;;20.10;70.90;;;;;;5050501;28;20556;-66
2022/08/13 02:31:29;;;;;;;0.00;0.00;;;20.10;70.80;;;;;;5071665;28;20469;-67
2022/08/13 02:33:55;;;;;;;0.10;0.10;;;20.10;70.90;;;;;;5056400;28;20132;-67
2022/08/13 02:36:22;;;;;;;0.00;0.00;;;20.10;70.60;;;;;;5068714;28;20409;-66
2022/08/13 02:39:14;;;;;;;0.47;0.43;;;20.00;70.50;;;;;;5067581;28;20116;-66
2022/08/13 02:41:43;;;;;;;0.00;0.00;;;20.00;70.30;;;;;;5056770;28;20470;-66
2022/08/13 02:44:11;;;;;;;0.00;0.00;;;20.00;70.10;;;;;;5073004;28;20370;-66
2022/08/13 02:46:39;;;;;;;0.00;0.00;;;20.00;70.10;;;;;;5071873;28;20443;-66
2022/08/13 02:49:04;;;;;;;0.00;0.00;;;20.00;70.00;;;;;;5072823;28;20040;-66
2022/08/13 02:51:31;;;;;;;0.00;0.00;;;19.90;70.20;;;;;;5070497;28;20113;-66
2022/08/13 02:54:00;;;;;;;0.00;0.00;;;19.90;70.00;;;;;;5072519;28;20036;-66
2022/08/13 02:56:27;;;;;;;0.00;0.00;;;19.90;69.90;;;;;;5066848;28;20048;-66
2022/08/13 02:58:55;;;;;;;0.00;0.00;;;19.90;69.80;;;;;;5072566;28;20123;-66
2022/08/13 03:01:22;;;;;;;0.00;0.00;;;19.90;69.60;;;;;;5057504;28;20103;-66
2022/08/13 03:03:48;;;;;;;0.00;0.00;;;19.80;69.60;;;;;;5053387;28;20053;-66
2022/08/13 03:06:14;;;;;;;0.00;0.00;;;19.80;69.50;;;;;;5071681;28;20040;-67
2022/08/13 03:08:39;;;;;;;0.43;0.43;;;19.80;69.40;;;;;;5072499;28;20056;-66
2022/08/13 03:11:05;;;;;;;0.00;0.00;;;19.70;69.30;;;;;;5072138;28;20040;-66
2022/08/13 03:13:33;;;;;;;0.00;0.00;;;19.80;69.10;;;;;;5071571;28;20072;-66
2022/08/13 03:16:00;;;;;;;0.00;0.00;;;19.80;69.00;;;;;;5069106;28;20040;-66
2022/08/13 03:18:26;;;;;;;0.00;0.00;;;19.70;68.90;;;;;;5072131;28;20064;-66
2022/08/13 03:20:52;;;;;;;0.00;0.00;;;19.70;68.80;;;;;;5064508;28;20049;-66
2022/08/13 03:23:18;;;;;;;0.00;0.00;;;19.70;68.60;;;;;;5052094;28;20044;-66
2022/08/13 03:25:45;;;;;;;0.00;0.00;;;19.70;68.50;;;;;;5052668;28;20052;-66
2022/08/13 03:28:10;;;;;;;0.00;0.00;;;19.60;68.40;;;;;;5052182;28;20052;-66
2022/08/13 03:30:36;;;;;;;0.00;0.00;;;19.60;68.30;;;;;;5052077;28;20037;-66
2022/08/13 03:33:08;;;;;;;0.00;0.00;;;19.60;68.20;;;;;;5064890;28;20493;-66
2022/08/13 03:35:36;;;;;;;0.00;0.00;;;19.50;68.10;;;;;;5070786;28;20060;-66
2022/08/13 03:38:02;;;;;;;0.00;0.00;;;19.60;68.10;;;;;;5071940;28;20052;-67
2022/08/13 03:41:00;;;;;;;0.00;0.00;;;19.60;68.10;;;;;;5069432;28;20082;-66
2022/08/13 03:43:17;;;;;;;0.00;0.00;;;19.50;68.00;;;;;;5050307;28;20087;-67
2022/08/13 03:45:44;;;;;;;0.00;0.00;;;19.50;68.00;;;;;;5054019;28;20056;-67
2022/08/13 03:48:13;;;;;;;0.00;0.00;;;19.50;68.20;;;;;;5070324;28;20048;-66
2022/08/13 03:50:40;;;;;;;0.00;0.00;;;19.50;68.00;;;;;;5070952;28;20048;-67
2022/08/13 03:53:06;;;;;;;0.00;0.00;;;19.50;67.90;;;;;;5071756;28;20045;-67
2022/08/13 03:55:33;;;;;;;0.00;0.00;;;19.40;68.00;;;;;;5070866;28;20489;-67
2022/08/13 03:58:00;;;;;;;0.00;0.00;;;19.50;67.80;;;;;;5051252;28;20055;-67
2022/08/13 04:00:28;;;;;;;0.00;0.00;;;19.40;67.90;;;;;;5052619;28;20098;-67
2022/08/13 04:02:55;;;;;;;0.00;0.00;;;19.30;67.80;;;;;;5052799;28;20110;-67
2022/08/13 04:05:22;;;;;;;0.00;0.00;;;19.30;67.80;;;;;;5052421;28;20080;-67
2022/08/13 04:07:50;;;;;;;0.00;0.00;;;19.30;67.80;;;;;;5069575;28;20134;-67
2022/08/13 04:10:16;;;;;;;0.00;0.00;;;19.30;67.70;;;;;;5068871;28;20084;-67
2022/08/13 04:12:42;;;;;;;0.00;0.00;;;19.30;67.80;;;;;;5052531;28;20094;-67
2022/08/13 04:15:08;;;;;;;0.00;0.00;;;19.20;68.30;;;;;;5051950;28;20049;-67
2022/08/13 04:17:36;;;;;;;0.00;0.00;;;19.30;68.40;;;;;;5064945;28;20051;-67
2022/08/13 04:20:07;;;;;;;0.00;0.00;;;19.30;67.90;;;;;;5070514;28;20485;-67
2022/08/13 04:22:34;;;;;;;0.75;0.75;;;19.20;67.70;;;;;;5070066;28;20044;-67
2022/08/13 04:25:00;;;;;;;0.00;0.00;;;19.20;67.60;;;;;;5070709;28;20083;-67
2022/08/13 04:27:26;;;;;;;0.00;0.00;;;19.20;67.60;;;;;;5058541;28;20056;-68
2022/08/13 04:29:56;;;;;;;0.00;0.00;;;19.20;67.80;;;;;;5051114;28;20041;-66
2022/08/13 04:32:23;;;;;;;0.00;0.00;;;19.20;67.70;;;;;;5058553;28;20048;-66
2022/08/13 04:34:48;;;;;;;0.00;0.00;;;19.10;67.70;;;;;;5050748;28;20087;-66
2022/08/13 04:37:14;;;;;;;0.00;0.00;;;19.20;67.70;;;;;;5064119;28;20040;-66
2022/08/13 04:39:40;;;;;;;0.00;0.00;;;19.30;67.70;;;;;;5050610;28;20075;-66
2022/08/13 04:42:07;;;;;;;0.00;0.00;;;19.20;67.60;;;;;;5058501;28;20037;-66
2022/08/13 04:44:33;;;;;;;0.00;0.00;;;19.20;67.60;;;;;;5050575;28;20091;-66
2022/08/13 04:46:59;;;;;;;0.00;0.00;;;19.20;67.70;;;;;;5050534;28;20547;-66
2022/08/13 04:49:25;;;;;;;0.00;0.00;;;19.20;67.70;;;;;;5051223;28;20037;-67
2022/08/13 04:51:51;;;;;;;0.10;0.10;;;19.20;67.60;;;;;;5050858;28;20041;-67
2022/08/13 04:54:19;;;;;;;0.00;0.00;;;19.20;67.60;;;;;;5051505;28;20041;-66
2022/08/13 04:56:45;;;;;;;0.00;0.00;;;19.20;67.70;;;;;;5068088;28;20052;-66
2022/08/13 04:59:11;;;;;;;0.00;0.00;;;19.10;67.60;;;;;;5068127;28;20041;-66
2022/08/13 05:01:37;;;;;;;0.20;0.10;;;19.20;67.50;;;;;;5062865;28;20040;-66
2022/08/13 05:04:03;;;;;;;0.00;0.00;;;19.20;67.50;;;;;;5069862;28;20045;-66
2022/08/13 05:06:29;;;;;;;0.00;0.00;;;19.20;67.40;;;;;;5068740;28;20044;-66
2022/08/13 05:08:56;;;;;;;0.00;0.00;;;19.20;67.40;;;;;;5070215;28;20052;-66
2022/08/13 05:11:22;;;;;;;0.00;0.00;;;19.30;67.40;;;;;;5052186;28;20045;-66
2022/08/13 05:13:48;;;;;;;0.00;0.00;;;19.30;67.40;;;;;;5048949;28;20409;-67
2022/08/13 05:16:16;;;;;;;0.00;0.00;;;19.30;67.40;;;;;;5056660;28;20040;-67
2022/08/13 05:18:45;;;;;;;0.10;0.10;;;19.40;67.50;;;;;;5051847;28;20107;-67
2022/08/13 05:21:12;;;;;;;0.00;0.00;;;19.40;67.40;;;;;;5050102;28;20120;-67
2022/08/13 05:23:39;;;;;;;0.00;0.00;;;19.40;67.40;;;;;;5049612;28;20045;-66
2022/08/13 05:26:06;;;;;;;0.00;0.00;;;19.40;67.50;;;;;;5049589;28;22004;-67
2022/08/13 05:28:33;;;;;;;0.00;0.00;;;19.50;67.40;;;;;;5050133;28;20068;-66
2022/08/13 05:30:59;;;;;;;0.00;0.00;;;19.50;67.50;;;;;;5048751;28;20044;-67
2022/08/13 05:33:27;;;;;;;0.00;0.00;;;19.50;67.50;;;;;;5053893;28;20044;-66
2022/08/13 05:35:58;;;;;;;0.00;0.00;;;19.50;67.60;;;;;;5058319;28;20120;-67
2022/08/13 05:38:24;;;;;;;;;;;19.60;67.40;;;;;;5058800;28;20082;-67
2022/08/13 05:40:51;;;;;;;0.00;0.00;;;19.60;67.50;;;;;;5063367;28;19982;-67
2022/08/13 05:43:19;;;;;;;0.00;0.00;;;19.60;67.40;;;;;;5055792;28;20037;-66
2022/08/13 05:46:08;;;;;;;0.00;0.00;;;19.60;67.50;;;;;;5069622;28;20052;-66
2022/08/13 05:48:40;;;;;;;0.00;0.00;;;19.80;67.80;;;;;;5056459;28;20573;-66
2022/08/13 05:51:10;;;;;;;0.25;0.10;;;19.80;67.50;;;;;;5062097;28;20037;-66
2022/08/13 05:53:37;;;;;;;0.00;0.00;;;19.90;67.30;;;;;;5054485;28;20051;-66
2022/08/13 05:56:06;;;;;;;0.00;0.00;;;20.00;67.00;;;;;;5064404;28;20045;-66
2022/08/13 05:58:32;;;;;;;0.00;0.00;;;20.10;66.80;;;;;;5062287;28;20040;-67
2022/08/13 06:03:43;;;;;;;0.00;0.00;;;20.20;66.60;;;;;;5048691;28;20049;-66
2022/08/13 06:06:18;;;;;;;0.00;0.00;;;20.30;66.30;;;;;;5049260;28;20418;-66
2022/08/13 06:08:44;;;;;;;0.00;0.00;;;20.30;66.20;;;;;;5049345;28;20102;-66
2022/08/13 06:11:14;;;;;;;0.00;0.00;;;20.40;65.80;;;;;;5049378;28;20048;-66
2022/08/13 06:13:40;;;;;;;0.00;0.00;;;20.50;65.60;;;;;;5068062;28;20041;-66
2022/08/13 06:16:08;;;;;;;0.10;0.10;;;20.50;65.40;;;;;;5067919;28;20102;-67
2022/08/13 06:18:37;;;;;;;0.00;0.00;;;20.60;65.20;;;;;;5069331;28;20049;-67
2022/08/13 06:21:06;;;;;;;2.92;0.32;;;20.60;65.20;;;;;;5069329;28;20086;-67
2022/08/13 06:23:37;;;;;;;0.00;0.00;;;20.70;65.20;;;;;;5069301;28;20098;-67
2022/08/13 06:26:05;;;;;;;0.00;0.00;;;20.80;65.30;;;;;;5069239;28;20076;-67
2022/08/13 06:28:32;;;;;;;0.00;0.00;;;20.80;65.40;;;;;;5068881;28;20051;-67
2022/08/13 06:31:01;;;;;;;0.00;0.00;;;20.90;65.30;;;;;;5069069;28;20524;-67
2022/08/13 06:33:28;;;;;;;0.00;0.00;;;21.00;65.40;;;;;;5069530;28;20041;-67
2022/08/13 06:35:58;;;;;;;0.08;0.08;;;21.00;65.10;;;;;;5069315;28;20041;-67
2022/08/13 06:38:28;;;;;;;0.00;0.00;;;21.10;65.00;;;;;;5068715;28;20055;-67
2022/08/13 06:40:55;;;;;;;0.00;0.00;;;21.20;64.70;;;;;;5069196;28;20459;-67
2022/08/13 06:43:22;;;;;;;0.00;0.00;;;21.20;64.40;;;;;;5069108;28;20158;-66
2022/08/13 06:45:48;;;;;;;0.25;0.25;;;21.30;64.10;;;;;;5068835;28;20044;-67
2022/08/13 06:48:14;;;;;;;0.00;0.00;;;21.40;64.20;;;;;;5057781;28;20043;-67
2022/08/13 06:50:41;;;;;;;0.00;0.00;;;21.40;64.10;;;;;;5062444;28;20040;-67
2022/08/13 06:53:08;;;;;;;0.00;0.00;;;21.50;63.90;;;;;;5068527;28;20174;-67
2022/08/13 06:55:40;;;;;;;0.00;0.00;;;21.60;64.00;;;;;;5068681;28;20044;-67
2022/08/13 06:58:09;;;;;;;0.00;0.00;;;21.60;64.00;;;;;;5068922;28;20087;-66
2022/08/13 07:00:37;;;;;;;0.00;0.00;;;21.70;64.00;;;;;;5068798;28;20405;-66
2022/08/13 07:03:02;;;;;;;0.00;0.00;;;21.80;64.00;;;;;;5068708;28;20105;-67
2022/08/13 07:05:33;;;;;;;0.00;0.00;;;21.70;64.10;;;;;;5065670;28;20053;-67
2022/08/13 07:08:02;;;;;;;0.00;0.00;;;21.80;64.20;;;;;;5047306;28;20088;-67
2022/08/13 07:10:28;;;;;;;0.00;0.00;;;21.80;64.40;;;;;;5049116;28;20059;-67
2022/08/13 07:12:56;;;;;;;0.00;0.00;;;21.90;64.30;;;;;;5051312;28;20570;-67
2022/08/13 07:15:23;;;;;;;0.00;0.00;;;21.90;64.50;;;;;;5067623;28;20045;-67
2022/08/13 07:17:50;;;;;;;0.00;0.00;;;22.00;64.30;;;;;;5072486;28;20047;-67
2022/08/13 07:20:17;;;;;;;0.00;0.00;;;22.00;63.90;;;;;;5072307;28;20131;-68
2022/08/13 07:22:43;;;;;;;0.00;0.00;;;22.10;63.90;;;;;;5071788;28;20044;-68
2022/08/13 07:25:10;;;;;;;0.20;0.20;;;22.10;63.90;;;;;;5053231;28;20397;-68
2022/08/13 07:27:40;;;;;;;0.00;0.00;;;22.10;63.80;;;;;;5061321;28;20049;-67
2022/08/13 07:30:07;;;;;;;0.00;0.00;;;22.20;63.70;;;;;;5069592;28;20619;-67
2022/08/13 07:32:37;;;;;;;0.00;0.00;;;22.30;63.30;;;;;;5065612;28;20528;-68
2022/08/13 07:35:04;;;;;;;0.00;0.00;;;22.30;62.90;;;;;;5067633;28;20127;-67
2022/08/13 07:37:29;;;;;;;0.00;0.00;;;22.40;63.30;;;;;;5071938;28;20041;-67
2022/08/13 07:39:59;;;;;;;0.00;0.00;;;22.50;63.10;;;;;;5055710;28;20079;-67
2022/08/13 07:42:27;;;;;;;0.00;0.00;;;22.60;62.80;;;;;;5050731;28;20131;-67
2022/08/13 07:44:53;;;;;;;0.00;0.00;;;22.60;62.60;;;;;;5065946;28;20424;-67
2022/08/13 07:47:21;;;;;;;0.00;0.00;;;22.70;62.60;;;;;;5056180;28;20769;-67
2022/08/13 07:49:48;;;;;;;0.13;0.10;;;22.80;62.70;;;;;;5058669;28;20050;-67
2022/08/13 07:52:14;;;;;;;0.00;0.00;;;22.90;62.40;;;;;;5062515;28;20037;-67
2022/08/13 07:54:42;;;;;;;0.00;0.00;;;23.00;62.20;;;;;;5060690;28;20738;-67
2022/08/13 07:57:10;;;;;;;0.00;0.00;;;23.00;62.00;;;;;;5063320;28;20048;-67
2022/08/13 07:59:36;;;;;;;0.00;0.00;;;23.10;61.80;;;;;;5059925;28;20084;-67
2022/08/13 08:02:07;;;;;;;0.00;0.00;;;23.20;61.90;;;;;;5059342;28;20460;-67
2022/08/13 08:04:35;;;;;;;0.00;0.00;;;23.30;61.80;;;;;;5061100;28;20056;-67
2022/08/13 08:07:01;;;;;;;0.00;0.00;;;23.40;61.20;;;;;;5060222;28;20064;-68
2022/08/13 08:09:29;;;;;;;0.00;0.00;;;23.50;61.10;;;;;;5041541;28;20192;-67
2022/08/13 08:14:43;;;;;;;0.00;0.00;;;23.60;60.50;;;;;;5058975;28;20395;-67
2022/08/13 08:17:10;;;;;;;0.00;0.00;;;23.70;60.60;;;;;;5062821;28;20094;-66
2022/08/13 08:19:47;;;;;;;0.00;0.00;;;23.80;61.10;;;;;;5061754;28;20048;-68
2022/08/13 08:22:15;;;;;;;0.00;0.00;;;23.90;60.70;;;;;;5057348;28;20425;-67
2022/08/13 08:24:47;;;;;;;0.00;0.00;;;24.00;59.80;;;;;;5062308;28;20045;-67
2022/08/13 08:27:16;;;;;;;0.00;0.00;;;24.00;59.30;;;;;;5061317;28;20055;-67
2022/08/13 08:29:42;;;;;;;0.00;0.00;;;24.10;59.20;;;;;;5063763;28;20044;-66
2022/08/13 08:32:08;;;;;;;0.00;0.00;;;24.20;58.70;;;;;;5065723;28;20040;-68
2022/08/13 08:34:39;;;;;;;0.00;0.00;;;24.30;58.10;;;;;;5064811;28;20052;-68
2022/08/13 08:37:05;;;;;;;0.00;0.00;;;24.50;57.80;;;;;;5054787;28;20121;-68
2022/08/13 08:42:36;;;;;;;0.05;0.05;;;24.60;58.00;;;;;;5064137;28;20040;-68
2022/08/13 08:45:08;;;;;;;0.00;0.00;;;24.70;57.80;;;;;;5066172;28;20048;-68
2022/08/13 08:47:37;;;;;;;0.00;0.00;;;24.80;57.50;;;;;;5050236;28;20056;-68
2022/08/13 08:50:05;;;;;;;0.00;0.00;;;24.90;57.70;;;;;;5052873;28;20037;-68
2022/08/13 08:55:16;;;;;;;0.00;0.00;;;25.00;57.10;;;;;;5063034;28;20441;-68
2022/08/13 08:57:46;;;;;;;0.00;0.00;;;25.00;55.20;;;;;;5052457;28;20053;-68
2022/08/13 09:00:14;;;;;;;0.00;0.00;;;25.10;56.10;;;;;;5056381;28;20043;-68
2022/08/13 09:02:40;;;;;;;0.00;0.00;;;25.20;54.60;;;;;;5060599;28;20482;-68
2022/08/13 09:05:12;;;;;;;0.00;0.00;;;25.30;54.00;;;;;;5059362;28;20048;-67
2022/08/13 09:07:41;;;;;;;0.00;0.00;;;25.30;53.80;;;;;;5057114;28;20047;-68
2022/08/13 09:10:12;;;;;;;0.00;0.00;;;25.50;53.90;;;;;;5059964;28;20040;-68
2022/08/13 09:12:41;;;;;;;0.00;0.00;;;25.50;53.90;;;;;;5062188;28;20152;-68
2022/08/13 09:15:07;;;;;;;0.00;0.00;;;25.60;53.80;;;;;;5059003;28;20457;-68
2022/08/13 09:17:34;;;;;;;0.00;0.00;;;25.60;53.70;;;;;;5058016;28;20091;-67
2022/08/13 09:20:01;;;;;;;0.00;0.00;;;25.80;55.00;;;;;;5055891;28;20029;-68
2022/08/13 09:22:26;;;;;;;0.00;0.00;;;25.80;53.80;;;;;;5065377;28;20036;-67
2022/08/13 09:24:58;;;;;;;0.00;0.00;;;25.90;54.00;;;;;;5068639;28;20048;-68
2022/08/13 09:27:23;;;;;;;0.00;0.00;;;25.90;53.80;;;;;;5069292;28;20048;-68
2022/08/13 09:29:50;;;;;;;0.00;0.00;;;26.00;53.20;;;;;;5058032;28;20037;-68
2022/08/13 09:32:16;;;;;;;0.00;0.00;;;26.00;52.30;;;;;;5053386;28;20424;-68
2022/08/13 09:34:45;;;;;;;0.00;0.00;;;26.00;51.20;;;;;;5055927;28;20040;-68
2022/08/13 09:37:12;;;;;;;0.00;0.00;;;26.10;50.20;;;;;;5051959;28;20044;-68
2022/08/13 09:39:53;;;;;;;0.00;0.00;;;26.20;51.20;;;;;;5048318;28;20049;-68
2022/08/13 09:42:25;;;;;;;0.00;0.00;;;26.30;50.70;;;;;;5048357;28;20048;-68
2022/08/13 09:44:56;;;;;;;0.00;0.00;;;26.40;48.80;;;;;;5059676;28;20040;-68
2022/08/13 09:47:23;;;;;;;0.00;0.00;;;26.50;49.20;;;;;;5069139;28;20454;-68
2022/08/13 09:49:49;;;;;;;0.00;0.00;;;26.50;48.90;;;;;;5053817;28;20088;-66
2022/08/13 09:52:20;;;;;;;0.00;0.00;;;26.60;50.00;;;;;;5049698;28;20083;-66
2022/08/13 09:54:47;;;;;;;0.00;0.00;;;26.70;47.00;;;;;;5049303;28;20128;-67
2022/08/13 09:57:12;;;;;;;0.00;0.00;;;26.80;47.90;;;;;;5049538;28;20075;-67
2022/08/13 09:59:39;;;;;;;0.00;0.00;;;26.90;46.70;;;;;;5049902;28;20073;-67
2022/08/13 10:02:09;;;;;;;0.00;0.00;;;27.00;49.90;;;;;;5049291;28;20122;-67
2022/08/13 10:04:37;;;;;;;0.00;0.00;;;27.00;47.60;;;;;;5056558;28;20131;-67
2022/08/13 10:07:04;;;;;;;0.63;0.63;;;27.10;46.00;;;;;;5068098;28;20082;-66
2022/08/13 10:09:33;;;;;;;0.00;0.00;;;27.20;47.60;;;;;;5064010;28;20056;-67
2022/08/13 10:12:03;;;;;;;0.00;0.00;;;27.20;48.00;;;;;;5062535;28;20044;-67
2022/08/13 10:14:29;;;;;;;0.00;0.00;;;27.30;46.30;;;;;;5057249;28;20056;-67
2022/08/13 10:16:55;;;;;;;0.00;0.00;;;27.40;44.50;;;;;;5064843;28;20041;-67
2022/08/13 10:19:20;;;;;;;0.00;0.00;;;27.50;45.60;;;;;;5062634;28;20405;-67
2022/08/13 10:21:46;;;;;;;0.00;0.00;;;27.60;46.50;;;;;;5050425;28;20045;-67
2022/08/13 10:24:12;;;;;;;0.00;0.00;;;27.60;43.60;;;;;;5069388;28;20485;-67
2022/08/13 10:26:40;;;;;;;0.00;0.00;;;27.70;45.40;;;;;;5069176;28;20520;-67
2022/08/13 10:29:08;;;;;;;0.00;0.00;;;27.80;42.50;;;;;;5050582;28;20045;-66
2022/08/13 10:31:37;;;;;;;0.00;0.00;;;27.90;44.90;;;;;;5059467;28;20048;-66
2022/08/13 10:34:05;;;;;;;0.00;0.00;;;28.00;43.80;;;;;;5068934;28;20036;-66
2022/08/13 10:36:32;;;;;;;0.00;0.00;;;28.10;43.60;;;;;;5067170;28;20052;-66
2022/08/13 10:38:58;;;;;;;0.00;0.00;;;28.10;44.40;;;;;;5068064;28;20080;-66
2022/08/13 10:41:25;;;;;;;0.00;0.00;;;28.20;42.20;;;;;;5049561;28;20056;-67
2022/08/13 10:43:56;;;;;;;0.38;0.38;;;28.20;42.90;;;;;;5048971;28;20049;-67
2022/08/13 10:46:22;;;;;;;0.00;0.00;;;28.30;42.70;;;;;;5048458;28;20387;-66
2022/08/13 10:48:55;;;;;;;0.00;0.00;;;28.40;40.40;;;;;;5053372;28;20546;-67
2022/08/13 10:51:23;;;;;;;0.00;0.00;;;28.50;39.50;;;;;;5061022;28;20521;-67
2022/08/13 10:53:55;;;;;;;0.32;0.28;;;28.50;39.50;;;;;;5060577;28;20037;-67
2022/08/13 10:56:22;;;;;;;0.00;0.00;;;28.50;39.00;;;;;;5063781;28;20057;-67
2022/08/13 10:58:48;;;;;;;0.00;0.00;;;28.60;43.70;;;;;;5059462;28;20516;-68
2022/08/13 11:01:15;;;;;;;0.00;0.00;;;28.70;42.20;;;;;;5061986;28;20044;-68
2022/08/13 11:03:44;;;;;;;0.00;0.00;;;28.70;41.00;;;;;;5062383;28;20044;-68
2022/08/13 11:06:11;;;;;;;0.00;0.00;;;28.80;40.00;;;;;;5064062;28;20444;-68
2022/08/13 11:08:37;;;;;;;0.00;0.00;;;28.90;41.20;;;;;;5056489;28;20111;-68
2022/08/13 11:11:04;;;;;;;0.00;0.00;;;28.90;39.00;;;;;;5062574;28;20066;-67
2022/08/13 11:13:33;;;;;;;0.00;0.00;;;29.00;38.70;;;;;;5061650;28;20167;-67
2022/08/13 11:16:00;;;;;;;0.00;0.00;;;29.00;40.10;;;;;;5064643;28;20049;-67
2022/08/13 11:18:27;;;;;;;0.22;0.20;;;29.00;39.80;;;;;;5061061;28;20040;-68
2022/08/13 11:21:03;;;;;;;0.00;0.00;;;29.10;37.70;;;;;;5056594;28;20044;-67
2022/08/13 11:23:29;;;;;;;0.00;0.00;;;29.10;38.90;;;;;;5062499;28;20163;-67
2022/08/13 11:25:55;;;;;;;0.00;0.00;;;29.20;41.60;;;;;;5057977;28;20037;-67
2022/08/13 11:28:21;;;;;;;0.00;0.00;;;29.20;39.70;;;;;;5059216;28;20155;-67
2022/08/13 11:30:48;;;;;;;0.00;0.00;;;29.30;40.20;;;;;;5051748;28;20178;-67
2022/08/13 11:33:14;;;;;;;0.00;0.00;;;29.40;39.80;;;;;;5056192;28;20529;-66
2022/08/13 11:35:43;;;;;;;0.00;0.00;;;29.50;40.70;;;;;;5062118;28;20167;-67
2022/08/13 11:38:11;;;;;;;0.00;0.00;;;29.50;39.70;;;;;;5060568;28;20505;-67
2022/08/13 11:40:38;;;;;;;0.00;0.00;;;29.60;40.10;;;;;;5059007;28;20068;-67
2022/08/13 11:43:04;;;;;;;0.00;0.00;;;29.60;39.50;;;;;;5062667;28;20045;-69
2022/08/13 11:45:30;;;;;;;0.00;0.00;;;29.60;38.00;;;;;;5060274;28;20158;-68
2022/08/13 11:47:56;;;;;;;0.00;0.00;;;29.70;38.10;;;;;;5059986;28;20052;-68
2022/08/13 11:50:22;;;;;;;0.00;0.00;;;29.80;37.80;;;;;;5063691;28;20044;-68
2022/08/13 11:52:47;;;;;;;0.00;0.00;;;29.80;36.60;;;;;;5062352;28;20048;-68
2022/08/13 11:55:13;;;;;;;0.00;0.00;;;29.80;38.50;;;;;;5063128;28;20064;-68
2022/08/13 11:57:38;;;;;;;0.00;0.00;;;29.90;37.80;;;;;;5063253;28;20486;-68
2022/08/13 12:00:06;;;;;;;0.00;0.00;;;30.00;37.30;;;;;;5060855;28;20044;-68
2022/08/13 12:02:32;;;;;;;0.00;0.00;;;30.00;37.10;;;;;;5060488;28;20036;-69
2022/08/13 12:04:57;;;;;;;0.00;0.00;;;30.10;36.50;;;;;;5064413;28;20640;-69
2022/08/13 12:07:24;;;;;;;0.00;0.00;;;30.20;37.70;;;;;;5058355;28;20040;-69
2022/08/13 12:09:49;;;;;;;0.00;0.00;;;30.20;38.00;;;;;;5062314;28;20076;-69
2022/08/13 12:12:15;;;;;;;0.00;0.00;;;30.30;37.00;;;;;;5063791;28;20540;-67
2022/08/13 12:14:41;;;;;;;0.20;0.20;;;30.30;36.20;;;;;;5063161;28;20040;-68
2022/08/13 12:17:06;;;;;;;0.00;0.00;;;30.40;36.30;;;;;;5063129;28;20044;-68
2022/08/13 12:19:33;;;;;;;0.00;0.00;;;30.40;35.20;;;;;;5064272;28;20175;-69
2022/08/13 12:22:00;;;;;;;0.10;0.08;;;30.50;36.20;;;;;;5061891;28;20047;-68
2022/08/13 12:24:26;;;;;;;0.00;0.00;;;30.50;37.50;;;;;;5055823;28;20068;-68
2022/08/13 12:26:52;;;;;;;0.00;0.00;;;30.60;35.80;;;;;;5055946;28;20099;-67
2022/08/13 12:29:17;;;;;;;0.00;0.00;;;30.60;37.10;;;;;;5059872;28;20514;-68
2022/08/13 12:31:43;;;;;;;0.00;0.00;;;30.70;37.70;;;;;;5061594;28;20040;-68
2022/08/13 12:34:09;;;;;;;0.00;0.00;;;30.80;36.60;;;;;;5050622;28;20386;-68
2022/08/13 12:36:34;;;;;;;0.00;0.00;;;30.80;36.10;;;;;;5069612;28;20044;-68
2022/08/13 12:39:00;;;;;;;0.00;0.00;;;30.80;35.60;;;;;;5070440;28;20040;-67
2022/08/13 12:41:26;;;;;;;0.00;0.00;;;30.90;35.50;;;;;;5070607;28;20133;-68
2022/08/13 12:43:52;;;;;;;0.00;0.00;;;30.90;35.10;;;;;;5051782;28;20052;-68
2022/08/13 12:46:17;;;;;;;0.17;0.17;;;30.90;33.70;;;;;;5062230;28;20048;-68
2022/08/13 12:48:43;;;;;;;0.00;0.00;;;31.00;34.30;;;;;;5062840;28;20146;-68
2022/08/13 12:51:08;;;;;;;0.00;0.00;;;31.00;36.20;;;;;;5058438;28;20172;-68
2022/08/13 12:53:34;;;;;;;0.00;0.00;;;31.10;33.90;;;;;;5067201;28;20532;-68
2022/08/13 12:55:59;;;;;;;0.00;0.00;;;31.20;35.30;;;;;;5051621;28;20157;-68
2022/08/13 12:58:26;;;;;;;0.00;0.00;;;31.20;35.00;;;;;;5064106;28;20090;-68
2022/08/13 13:00:55;;;;;;;0.00;0.00;;;31.30;33.50;;;;;;5070141;28;20544;-68
2022/08/13 13:03:22;;;;;;;0.15;0.15;;;31.30;32.80;;;;;;5069821;28;20501;-68
2022/08/13 13:05:49;;;;;;;0.00;0.00;;;31.40;34.40;;;;;;5069091;28;20482;-68
2022/08/13 13:08:36;;;;;;;0.10;0.10;;;31.50;33.60;;;;;;5050065;28;20063;-68
2022/08/13 13:11:08;;;;;;;0.00;0.00;;;31.50;31.40;;;;;;5049749;28;20045;-68